GMTN Airport Information

Runway Information
Runway 06 Length 7546 ft width 148 ft
Elevation 13 ft Threshold ft Heading 54
Runway 24 Length 7546 ft Width 148 ft
Elevation 10 ft Threshold ft Heading 234
Airport Frequencies
Type TWR Name TETOUAN TW Frequency 119 MHZ
Airport Navaids
Type VOR-DME Name Tetouan Frequency 117300 KHZ
Type NDB Name Saniat Rmel Frequency 388 KHZ
Airport Weather Information & NOTAM
ADDS - METARS form results

(2309 UTC 18 August 2022)
Data provider http://aviationweather.gov/metar/data/
 
METAR text: GMTN 182300Z 35006KT 8000 FEW013 21/17 Q1014 NOSIG
Conditions at: GMTN (SANIA RAMEL/TETO, MA) observed 2300 UTC 18 August 2022
Temperature: 21.0°C (70°F)
Dewpoint: 17.0°C (63°F) [RH = 78%]
Pressure (altimeter): 29.94 inches Hg (1014.0 mb)
Winds: from the N (350 degrees) at 7 MPH (6 knots; 3.1 m/s)
Visibility: 5 miles ( 8 km)
Ceiling: at least 12,000 feet AGL
Clouds: few clouds at 1300 feet AGL
Weather: no significant weather observed at this time